Terminal Aerodrome Forecast
Issued by NWS

Home | Current Version | Previous Version | Text Only | Print | Product List | Glossary On
Versions: 1 2 3 4 5 6 7 8 9 10 11 12
000
FTAK31 PAJN 251100
TAFAWG
TAF
PAWG 251127Z 2512/2612 14007KT P6SM SCT080
     FM251800 11006KT P6SM SCT070 SCT100
     FM252100 12008KT P6SM VCSH SCT060 BKN100
     FM260800 12010G20KT P6SM BKN040 BKN060
      AMD LTD TO CLD VIS AND WIND TIL 251500=

USA.gov is the U.S. government's official web portal to all federal, state and local government web resources and services.